sensor_id;sensor_type;location;lat;lon;timestamp;P1;durP1;ratioP1;P2;durP2;ratioP2
9536;SDS011;4807;48.024;11.726;2023-12-20T00:00:17;2.07;;;1.17;;
9536;SDS011;4807;48.024;11.726;2023-12-20T00:03:27;1.40;;;1.00;;
9536;SDS011;4807;48.024;11.726;2023-12-20T00:06:47;1.43;;;1.00;;
9536;SDS011;4807;48.024;11.726;2023-12-20T00:09:55;1.83;;;0.83;;
9536;SDS011;4807;48.024;11.726;2023-12-20T00:13:03;1.23;;;0.90;;
9536;SDS011;4807;48.024;11.726;2023-12-20T00:16:13;1.23;;;0.90;;
9536;SDS011;4807;48.024;11.726;2023-12-20T00:19:23;1.00;;;0.90;;
9536;SDS011;4807;48.024;11.726;2023-12-20T00:22:31;1.60;;;1.10;;
9536;SDS011;4807;48.024;11.726;2023-12-20T00:25:39;1.03;;;0.77;;
9536;SDS011;4807;48.024;11.726;2023-12-20T00:28:48;1.10;;;0.97;;
9536;SDS011;4807;48.024;11.726;2023-12-20T00:31:56;1.47;;;0.70;;
9536;SDS011;4807;48.024;11.726;2023-12-20T00:35:06;1.97;;;0.90;;
9536;SDS011;4807;48.024;11.726;2023-12-20T00:38:15;0.90;;;0.87;;
9536;SDS011;4807;48.024;11.726;2023-12-20T00:41:23;1.17;;;0.93;;
9536;SDS011;4807;48.024;11.726;2023-12-20T00:44:31;1.43;;;1.10;;
9536;SDS011;4807;48.024;11.726;2023-12-20T00:47:39;1.40;;;1.30;;
9536;SDS011;4807;48.024;11.726;2023-12-20T00:50:50;2.23;;;1.10;;
9536;SDS011;4807;48.024;11.726;2023-12-20T00:53:58;1.33;;;0.93;;
9536;SDS011;4807;48.024;11.726;2023-12-20T00:57:06;2.23;;;1.20;;
9536;SDS011;4807;48.024;11.726;2023-12-20T01:00:15;1.03;;;0.90;;
9536;SDS011;4807;48.024;11.726;2023-12-20T01:03:23;1.40;;;1.10;;
9536;SDS011;4807;48.024;11.726;2023-12-20T01:06:33;1.63;;;1.10;;
9536;SDS011;4807;48.024;11.726;2023-12-20T01:09:41;1.33;;;1.23;;
9536;SDS011;4807;48.024;11.726;2023-12-20T01:12:50;2.07;;;1.20;;
9536;SDS011;4807;48.024;11.726;2023-12-20T01:15:59;1.57;;;1.27;;
9536;SDS011;4807;48.024;11.726;2023-12-20T01:19:07;1.23;;;1.03;;
9536;SDS011;4807;48.024;11.726;2023-12-20T01:22:17;1.20;;;1.10;;
9536;SDS011;4807;48.024;11.726;2023-12-20T01:25:26;1.27;;;1.13;;
9536;SDS011;4807;48.024;11.726;2023-12-20T01:28:34;2.70;;;1.20;;
9536;SDS011;4807;48.024;11.726;2023-12-20T01:31:42;1.20;;;1.10;;
9536;SDS011;4807;48.024;11.726;2023-12-20T01:34:51;1.37;;;1.00;;
9536;SDS011;4807;48.024;11.726;2023-12-20T01:38:01;1.23;;;0.90;;
9536;SDS011;4807;48.024;11.726;2023-12-20T01:41:09;1.73;;;1.03;;
9536;SDS011;4807;48.024;11.726;2023-12-20T01:44:17;1.77;;;1.13;;
9536;SDS011;4807;48.024;11.726;2023-12-20T01:47:25;2.37;;;1.40;;
9536;SDS011;4807;48.024;11.726;2023-12-20T01:50:34;1.70;;;1.20;;
9536;SDS011;4807;48.024;11.726;2023-12-20T01:53:46;1.10;;;1.00;;
9536;SDS011;4807;48.024;11.726;2023-12-20T01:56:55;1.67;;;1.20;;
9536;SDS011;4807;48.024;11.726;2023-12-20T02:00:04;1.60;;;1.37;;
9536;SDS011;4807;48.024;11.726;2023-12-20T02:03:16;2.13;;;1.30;;
9536;SDS011;4807;48.024;11.726;2023-12-20T02:06:26;1.67;;;1.10;;
9536;SDS011;4807;48.024;11.726;2023-12-20T02:09:40;1.03;;;0.87;;
9536;SDS011;4807;48.024;11.726;2023-12-20T02:12:48;0.90;;;0.90;;
9536;SDS011;4807;48.024;11.726;2023-12-20T02:15:57;1.33;;;1.00;;
9536;SDS011;4807;48.024;11.726;2023-12-20T02:19:06;1.53;;;1.30;;
9536;SDS011;4807;48.024;11.726;2023-12-20T02:22:22;1.50;;;1.20;;
9536;SDS011;4807;48.024;11.726;2023-12-20T02:25:30;1.03;;;1.00;;
9536;SDS011;4807;48.024;11.726;2023-12-20T02:28:39;3.50;;;1.40;;
9536;SDS011;4807;48.024;11.726;2023-12-20T02:31:48;1.63;;;1.33;;
9536;SDS011;4807;48.024;11.726;2023-12-20T02:34:56;1.33;;;1.03;;
9536;SDS011;4807;48.024;11.726;2023-12-20T02:38:06;2.27;;;1.30;;
9536;SDS011;4807;48.024;11.726;2023-12-20T02:41:15;2.30;;;1.10;;
9536;SDS011;4807;48.024;11.726;2023-12-20T02:44:24;1.63;;;1.40;;
9536;SDS011;4807;48.024;11.726;2023-12-20T02:47:32;1.57;;;1.13;;
9536;SDS011;4807;48.024;11.726;2023-12-20T02:50:41;1.43;;;1.33;;
9536;SDS011;4807;48.024;11.726;2023-12-20T02:53:51;2.17;;;1.20;;
9536;SDS011;4807;48.024;11.726;2023-12-20T02:56:59;1.13;;;1.00;;
9536;SDS011;4807;48.024;11.726;2023-12-20T03:00:07;1.10;;;0.90;;
9536;SDS011;4807;48.024;11.726;2023-12-20T03:03:17;1.87;;;1.30;;
9536;SDS011;4807;48.024;11.726;2023-12-20T03:06:25;1.03;;;0.90;;
9536;SDS011;4807;48.024;11.726;2023-12-20T03:09:35;1.57;;;1.30;;
9536;SDS011;4807;48.024;11.726;2023-12-20T03:13:03;1.23;;;0.97;;
9536;SDS011;4807;48.024;11.726;2023-12-20T03:16:12;1.27;;;1.10;;
9536;SDS011;4807;48.024;11.726;2023-12-20T03:19:22;1.20;;;1.10;;
9536;SDS011;4807;48.024;11.726;2023-12-20T03:22:31;1.70;;;1.20;;
9536;SDS011;4807;48.024;11.726;2023-12-20T03:25:40;2.20;;;1.37;;
9536;SDS011;4807;48.024;11.726;2023-12-20T03:28:48;1.40;;;1.07;;
9536;SDS011;4807;48.024;11.726;2023-12-20T03:31:57;1.90;;;1.20;;
9536;SDS011;4807;48.024;11.726;2023-12-20T03:35:05;1.57;;;1.30;;
9536;SDS011;4807;48.024;11.726;2023-12-20T03:38:13;3.10;;;1.30;;
9536;SDS011;4807;48.024;11.726;2023-12-20T03:41:23;1.40;;;0.97;;
9536;SDS011;4807;48.024;11.726;2023-12-20T03:44:32;1.03;;;0.93;;
9536;SDS011;4807;48.024;11.726;2023-12-20T03:47:40;1.57;;;1.20;;
9536;SDS011;4807;48.024;11.726;2023-12-20T03:50:49;2.30;;;0.90;;
9536;SDS011;4807;48.024;11.726;2023-12-20T03:53:57;1.20;;;0.80;;
9536;SDS011;4807;48.024;11.726;2023-12-20T03:57:07;1.90;;;0.90;;
9536;SDS011;4807;48.024;11.726;2023-12-20T04:00:16;0.97;;;0.63;;
9536;SDS011;4807;48.024;11.726;2023-12-20T04:03:25;1.53;;;1.03;;
9536;SDS011;4807;48.024;11.726;2023-12-20T04:06:33;1.00;;;0.60;;
9536;SDS011;4807;48.024;11.726;2023-12-20T04:09:41;0.80;;;0.70;;
9536;SDS011;4807;48.024;11.726;2023-12-20T04:12:51;0.83;;;0.80;;
9536;SDS011;4807;48.024;11.726;2023-12-20T04:15:59;1.30;;;0.77;;
9536;SDS011;4807;48.024;11.726;2023-12-20T04:19:08;0.70;;;0.63;;
9536;SDS011;4807;48.024;11.726;2023-12-20T04:22:17;1.20;;;0.60;;
9536;SDS011;4807;48.024;11.726;2023-12-20T04:25:26;0.63;;;0.53;;
9536;SDS011;4807;48.024;11.726;2023-12-20T04:28:36;0.53;;;0.53;;
9536;SDS011;4807;48.024;11.726;2023-12-20T04:31:44;0.80;;;0.60;;
9536;SDS011;4807;48.024;11.726;2023-12-20T04:34:52;1.30;;;0.60;;
9536;SDS011;4807;48.024;11.726;2023-12-20T04:38:00;0.80;;;0.67;;
9536;SDS011;4807;48.024;11.726;2023-12-20T04:41:09;1.80;;;0.70;;
9536;SDS011;4807;48.024;11.726;2023-12-20T04:44:18;0.63;;;0.60;;
9536;SDS011;4807;48.024;11.726;2023-12-20T04:47:26;1.73;;;0.60;;
9536;SDS011;4807;48.024;11.726;2023-12-20T04:50:35;2.37;;;0.50;;
9536;SDS011;4807;48.024;11.726;2023-12-20T04:53:43;0.43;;;0.43;;
9536;SDS011;4807;48.024;11.726;2023-12-20T04:56:52;0.50;;;0.50;;
9536;SDS011;4807;48.024;11.726;2023-12-20T05:00:02;0.40;;;0.40;;
9536;SDS011;4807;48.024;11.726;2023-12-20T05:03:11;0.60;;;0.60;;
9536;SDS011;4807;48.024;11.726;2023-12-20T05:06:20;0.40;;;0.37;;
9536;SDS011;4807;48.024;11.726;2023-12-20T05:09:28;0.40;;;0.40;;
9536;SDS011;4807;48.024;11.726;2023-12-20T05:12:36;0.53;;;0.50;;
9536;SDS011;4807;48.024;11.726;2023-12-20T05:15:47;0.83;;;0.40;;
9536;SDS011;4807;48.024;11.726;2023-12-20T05:18:56;1.40;;;0.37;;
9536;SDS011;4807;48.024;11.726;2023-12-20T05:22:07;0.40;;;0.40;;
9536;SDS011;4807;48.024;11.726;2023-12-20T05:25:15;0.60;;;0.40;;
9536;SDS011;4807;48.024;11.726;2023-12-20T05:28:25;0.30;;;0.30;;
9536;SDS011;4807;48.024;11.726;2023-12-20T05:31:35;0.80;;;0.50;;
9536;SDS011;4807;48.024;11.726;2023-12-20T05:34:43;0.70;;;0.30;;
9536;SDS011;4807;48.024;11.726;2023-12-20T05:37:52;0.30;;;0.30;;
9536;SDS011;4807;48.024;11.726;2023-12-20T05:41:00;0.33;;;0.33;;
9536;SDS011;4807;48.024;11.726;2023-12-20T05:44:09;0.70;;;0.40;;
9536;SDS011;4807;48.024;11.726;2023-12-20T05:47:19;0.50;;;0.50;;
9536;SDS011;4807;48.024;11.726;2023-12-20T05:50:27;0.40;;;0.40;;
9536;SDS011;4807;48.024;11.726;2023-12-20T05:53:36;3.20;;;0.40;;
9536;SDS011;4807;48.024;11.726;2023-12-20T05:56:44;0.30;;;0.30;;
9536;SDS011;4807;48.024;11.726;2023-12-20T05:59:52;0.30;;;0.30;;
9536;SDS011;4807;48.024;11.726;2023-12-20T06:03:02;0.50;;;0.30;;
9536;SDS011;4807;48.024;11.726;2023-12-20T06:06:12;0.20;;;0.20;;
9536;SDS011;4807;48.024;11.726;2023-12-20T06:09:22;0.47;;;0.20;;
9536;SDS011;4807;48.024;11.726;2023-12-20T06:12:31;0.20;;;0.20;;
9536;SDS011;4807;48.024;11.726;2023-12-20T06:15:42;1.10;;;0.60;;
9536;SDS011;4807;48.024;11.726;2023-12-20T06:18:52;0.40;;;0.33;;
9536;SDS011;4807;48.024;11.726;2023-12-20T06:22:01;1.90;;;0.40;;
9536;SDS011;4807;48.024;11.726;2023-12-20T06:25:09;0.33;;;0.20;;
9536;SDS011;4807;48.024;11.726;2023-12-20T06:28:18;0.30;;;0.30;;
9536;SDS011;4807;48.024;11.726;2023-12-20T06:31:26;0.30;;;0.30;;
9536;SDS011;4807;48.024;11.726;2023-12-20T06:34:36;0.53;;;0.40;;
9536;SDS011;4807;48.024;11.726;2023-12-20T06:37:45;0.30;;;0.30;;
9536;SDS011;4807;48.024;11.726;2023-12-20T06:40:54;0.23;;;0.23;;
9536;SDS011;4807;48.024;11.726;2023-12-20T06:44:04;0.17;;;0.17;;
9536;SDS011;4807;48.024;11.726;2023-12-20T06:47:12;0.97;;;0.40;;
9536;SDS011;4807;48.024;11.726;2023-12-20T06:50:22;0.20;;;0.20;;
9536;SDS011;4807;48.024;11.726;2023-12-20T06:53:31;0.30;;;0.20;;
9536;SDS011;4807;48.024;11.726;2023-12-20T06:56:39;2.13;;;0.23;;
9536;SDS011;4807;48.024;11.726;2023-12-20T06:59:48;0.57;;;0.20;;
9536;SDS011;4807;48.024;11.726;2023-12-20T07:02:58;0.50;;;0.30;;
9536;SDS011;4807;48.024;11.726;2023-12-20T07:06:08;0.73;;;0.27;;
9536;SDS011;4807;48.024;11.726;2023-12-20T07:09:16;0.20;;;0.20;;
9536;SDS011;4807;48.024;11.726;2023-12-20T07:12:25;0.60;;;0.20;;
9536;SDS011;4807;48.024;11.726;2023-12-20T07:15:33;0.17;;;0.17;;
9536;SDS011;4807;48.024;11.726;2023-12-20T07:18:43;0.20;;;0.20;;
9536;SDS011;4807;48.024;11.726;2023-12-20T07:21:54;1.20;;;0.80;;
9536;SDS011;4807;48.024;11.726;2023-12-20T07:25:03;0.20;;;0.20;;
9536;SDS011;4807;48.024;11.726;2023-12-20T07:28:13;2.63;;;0.80;;
9536;SDS011;4807;48.024;11.726;2023-12-20T07:31:23;0.20;;;0.20;;
9536;SDS011;4807;48.024;11.726;2023-12-20T07:34:31;3.23;;;0.33;;
9536;SDS011;4807;48.024;11.726;2023-12-20T07:37:44;0.20;;;0.20;;
9536;SDS011;4807;48.024;11.726;2023-12-20T07:40:53;0.20;;;0.20;;
9536;SDS011;4807;48.024;11.726;2023-12-20T07:44:01;0.57;;;0.20;;
9536;SDS011;4807;48.024;11.726;2023-12-20T07:47:11;0.30;;;0.20;;
9536;SDS011;4807;48.024;11.726;2023-12-20T07:50:23;1.23;;;0.30;;
9536;SDS011;4807;48.024;11.726;2023-12-20T07:53:34;0.40;;;0.40;;
9536;SDS011;4807;48.024;11.726;2023-12-20T07:56:42;0.33;;;0.17;;
9536;SDS011;4807;48.024;11.726;2023-12-20T07:59:51;0.30;;;0.30;;
9536;SDS011;4807;48.024;11.726;2023-12-20T08:03:00;0.10;;;0.10;;
9536;SDS011;4807;48.024;11.726;2023-12-20T08:06:11;2.67;;;0.40;;
9536;SDS011;4807;48.024;11.726;2023-12-20T08:09:22;0.87;;;0.10;;
9536;SDS011;4807;48.024;11.726;2023-12-20T08:12:30;0.23;;;0.20;;
9536;SDS011;4807;48.024;11.726;2023-12-20T08:15:41;0.20;;;0.20;;
9536;SDS011;4807;48.024;11.726;2023-12-20T08:18:50;1.13;;;0.20;;
9536;SDS011;4807;48.024;11.726;2023-12-20T08:21:59;0.20;;;0.20;;
9536;SDS011;4807;48.024;11.726;2023-12-20T08:25:09;0.10;;;0.10;;
9536;SDS011;4807;48.024;11.726;2023-12-20T08:28:18;0.20;;;0.10;;
9536;SDS011;4807;48.024;11.726;2023-12-20T08:31:27;0.20;;;0.20;;
9536;SDS011;4807;48.024;11.726;2023-12-20T08:34:36;0.30;;;0.20;;
9536;SDS011;4807;48.024;11.726;2023-12-20T08:37:45;0.10;;;0.07;;
9536;SDS011;4807;48.024;11.726;2023-12-20T08:40:55;0.30;;;0.20;;
9536;SDS011;4807;48.024;11.726;2023-12-20T08:44:03;0.60;;;0.50;;
9536;SDS011;4807;48.024;11.726;2023-12-20T08:47:12;0.20;;;0.20;;
9536;SDS011;4807;48.024;11.726;2023-12-20T08:50:22;0.20;;;0.20;;
9536;SDS011;4807;48.024;11.726;2023-12-20T08:53:31;0.80;;;0.60;;
9536;SDS011;4807;48.024;11.726;2023-12-20T08:56:42;0.40;;;0.27;;
9536;SDS011;4807;48.024;11.726;2023-12-20T08:59:50;0.77;;;0.70;;
9536;SDS011;4807;48.024;11.726;2023-12-20T09:02:59;1.23;;;0.60;;
9536;SDS011;4807;48.024;11.726;2023-12-20T09:06:09;0.97;;;0.30;;
9536;SDS011;4807;48.024;11.726;2023-12-20T09:09:20;0.10;;;0.10;;
9536;SDS011;4807;48.024;11.726;2023-12-20T09:12:30;0.33;;;0.20;;
9536;SDS011;4807;48.024;11.726;2023-12-20T09:15:38;1.37;;;0.30;;
9536;SDS011;4807;48.024;11.726;2023-12-20T09:18:46;0.20;;;0.20;;
9536;SDS011;4807;48.024;11.726;2023-12-20T09:21:55;0.30;;;0.30;;
9536;SDS011;4807;48.024;11.726;2023-12-20T09:25:04;1.43;;;0.80;;
9536;SDS011;4807;48.024;11.726;2023-12-20T09:28:15;1.33;;;0.20;;
9536;SDS011;4807;48.024;11.726;2023-12-20T09:31:23;0.60;;;0.20;;
9536;SDS011;4807;48.024;11.726;2023-12-20T09:34:32;2.10;;;0.40;;
9536;SDS011;4807;48.024;11.726;2023-12-20T09:37:40;2.53;;;0.40;;
9536;SDS011;4807;48.024;11.726;2023-12-20T09:40:51;0.37;;;0.33;;
9536;SDS011;4807;48.024;11.726;2023-12-20T09:44:03;0.60;;;0.60;;
9536;SDS011;4807;48.024;11.726;2023-12-20T09:47:11;0.87;;;0.47;;
9536;SDS011;4807;48.024;11.726;2023-12-20T09:50:23;0.80;;;0.33;;
9536;SDS011;4807;48.024;11.726;2023-12-20T09:53:32;0.97;;;0.40;;
9536;SDS011;4807;48.024;11.726;2023-12-20T09:56:44;0.30;;;0.30;;
9536;SDS011;4807;48.024;11.726;2023-12-20T09:59:54;0.40;;;0.27;;
9536;SDS011;4807;48.024;11.726;2023-12-20T10:03:03;0.60;;;0.40;;
9536;SDS011;4807;48.024;11.726;2023-12-20T10:06:16;0.70;;;0.30;;
9536;SDS011;4807;48.024;11.726;2023-12-20T10:09:25;0.57;;;0.53;;
9536;SDS011;4807;48.024;11.726;2023-12-20T10:12:36;0.50;;;0.50;;
9536;SDS011;4807;48.024;11.726;2023-12-20T10:15:47;0.10;;;0.10;;
9536;SDS011;4807;48.024;11.726;2023-12-20T10:18:58;0.20;;;0.20;;
9536;SDS011;4807;48.024;11.726;2023-12-20T10:22:08;0.93;;;0.23;;
9536;SDS011;4807;48.024;11.726;2023-12-20T10:25:18;1.40;;;0.20;;
9536;SDS011;4807;48.024;11.726;2023-12-20T10:28:27;0.70;;;0.20;;
9536;SDS011;4807;48.024;11.726;2023-12-20T10:31:43;0.20;;;0.20;;
9536;SDS011;4807;48.024;11.726;2023-12-20T10:34:52;0.20;;;0.20;;
9536;SDS011;4807;48.024;11.726;2023-12-20T10:38:03;0.60;;;0.30;;
9536;SDS011;4807;48.024;11.726;2023-12-20T10:41:13;0.40;;;0.20;;
9536;SDS011;4807;48.024;11.726;2023-12-20T10:44:24;0.10;;;0.10;;
9536;SDS011;4807;48.024;11.726;2023-12-20T10:47:33;0.33;;;0.20;;
9536;SDS011;4807;48.024;11.726;2023-12-20T10:50:46;0.00;;;0.00;;
9536;SDS011;4807;48.024;11.726;2023-12-20T10:53:58;0.10;;;0.10;;
9536;SDS011;4807;48.024;11.726;2023-12-20T10:57:07;0.30;;;0.20;;
9536;SDS011;4807;48.024;11.726;2023-12-20T11:00:18;0.53;;;0.20;;
9536;SDS011;4807;48.024;11.726;2023-12-20T11:03:30;0.20;;;0.20;;
9536;SDS011;4807;48.024;11.726;2023-12-20T11:06:45;0.50;;;0.10;;
9536;SDS011;4807;48.024;11.726;2023-12-20T11:10:01;0.60;;;0.40;;
9536;SDS011;4807;48.024;11.726;2023-12-20T11:13:26;0.60;;;0.60;;
9536;SDS011;4807;48.024;11.726;2023-12-20T11:16:40;0.50;;;0.40;;
9536;SDS011;4807;48.024;11.726;2023-12-20T11:20:08;0.10;;;0.10;;
9536;SDS011;4807;48.024;11.726;2023-12-20T11:23:18;0.57;;;0.13;;
9536;SDS011;4807;48.024;11.726;2023-12-20T11:26:28;0.10;;;0.10;;
9536;SDS011;4807;48.024;11.726;2023-12-20T11:29:37;0.47;;;0.30;;
9536;SDS011;4807;48.024;11.726;2023-12-20T11:32:46;0.30;;;0.20;;
9536;SDS011;4807;48.024;11.726;2023-12-20T11:35:56;0.20;;;0.20;;
9536;SDS011;4807;48.024;11.726;2023-12-20T11:39:07;0.20;;;0.13;;
9536;SDS011;4807;48.024;11.726;2023-12-20T11:42:19;0.20;;;0.20;;
9536;SDS011;4807;48.024;11.726;2023-12-20T11:45:28;0.50;;;0.30;;
9536;SDS011;4807;48.024;11.726;2023-12-20T11:48:37;0.10;;;0.10;;
9536;SDS011;4807;48.024;11.726;2023-12-20T11:51:49;0.20;;;0.20;;
9536;SDS011;4807;48.024;11.726;2023-12-20T11:54:57;0.20;;;0.20;;
9536;SDS011;4807;48.024;11.726;2023-12-20T11:58:06;0.40;;;0.40;;
9536;SDS011;4807;48.024;11.726;2023-12-20T12:01:16;1.13;;;0.60;;
9536;SDS011;4807;48.024;11.726;2023-12-20T12:04:27;0.70;;;0.40;;
9536;SDS011;4807;48.024;11.726;2023-12-20T12:07:37;0.97;;;0.70;;
9536;SDS011;4807;48.024;11.726;2023-12-20T12:10:49;0.50;;;0.30;;
9536;SDS011;4807;48.024;11.726;2023-12-20T12:13:58;0.27;;;0.20;;
9536;SDS011;4807;48.024;11.726;2023-12-20T12:17:09;0.70;;;0.50;;
9536;SDS011;4807;48.024;11.726;2023-12-20T12:20:19;0.40;;;0.40;;
9536;SDS011;4807;48.024;11.726;2023-12-20T12:23:30;0.73;;;0.50;;
9536;SDS011;4807;48.024;11.726;2023-12-20T12:26:41;0.60;;;0.60;;
9536;SDS011;4807;48.024;11.726;2023-12-20T12:30:02;0.30;;;0.30;;
9536;SDS011;4807;48.024;11.726;2023-12-20T12:33:15;0.20;;;0.20;;
9536;SDS011;4807;48.024;11.726;2023-12-20T12:36:23;0.30;;;0.30;;
9536;SDS011;4807;48.024;11.726;2023-12-20T12:39:33;0.20;;;0.20;;
9536;SDS011;4807;48.024;11.726;2023-12-20T12:42:42;0.40;;;0.40;;
9536;SDS011;4807;48.024;11.726;2023-12-20T12:45:53;0.20;;;0.20;;
9536;SDS011;4807;48.024;11.726;2023-12-20T12:49:02;1.00;;;0.70;;
9536;SDS011;4807;48.024;11.726;2023-12-20T12:52:10;0.97;;;0.83;;
9536;SDS011;4807;48.024;11.726;2023-12-20T12:55:20;0.20;;;0.20;;
9536;SDS011;4807;48.024;11.726;2023-12-20T12:58:28;0.23;;;0.23;;
9536;SDS011;4807;48.024;11.726;2023-12-20T13:01:37;0.20;;;0.20;;
9536;SDS011;4807;48.024;11.726;2023-12-20T13:04:46;0.90;;;0.50;;
9536;SDS011;4807;48.024;11.726;2023-12-20T13:07:55;0.40;;;0.40;;
9536;SDS011;4807;48.024;11.726;2023-12-20T13:11:05;0.50;;;0.50;;
9536;SDS011;4807;48.024;11.726;2023-12-20T13:14:13;0.40;;;0.40;;
9536;SDS011;4807;48.024;11.726;2023-12-20T13:17:23;0.40;;;0.40;;
9536;SDS011;4807;48.024;11.726;2023-12-20T13:20:35;0.50;;;0.50;;
9536;SDS011;4807;48.024;11.726;2023-12-20T13:23:46;0.77;;;0.77;;
9536;SDS011;4807;48.024;11.726;2023-12-20T13:26:57;2.40;;;0.60;;
9536;SDS011;4807;48.024;11.726;2023-12-20T13:30:06;2.63;;;1.63;;
9536;SDS011;4807;48.024;11.726;2023-12-20T13:33:16;1.00;;;0.90;;
9536;SDS011;4807;48.024;11.726;2023-12-20T13:36:25;0.40;;;0.30;;
9536;SDS011;4807;48.024;11.726;2023-12-20T13:39:34;1.33;;;0.93;;
9536;SDS011;4807;48.024;11.726;2023-12-20T13:42:45;1.07;;;0.97;;
9536;SDS011;4807;48.024;11.726;2023-12-20T13:45:55;1.80;;;1.70;;
9536;SDS011;4807;48.024;11.726;2023-12-20T13:49:04;1.80;;;1.70;;
9536;SDS011;4807;48.024;11.726;2023-12-20T13:52:13;0.50;;;0.50;;
9536;SDS011;4807;48.024;11.726;2023-12-20T13:55:23;1.17;;;0.93;;
9536;SDS011;4807;48.024;11.726;2023-12-20T13:58:36;1.93;;;0.67;;
9536;SDS011;4807;48.024;11.726;2023-12-20T14:01:47;1.87;;;0.90;;
9536;SDS011;4807;48.024;11.726;2023-12-20T14:04:58;3.80;;;0.70;;
9536;SDS011;4807;48.024;11.726;2023-12-20T14:08:08;2.33;;;0.73;;
9536;SDS011;4807;48.024;11.726;2023-12-20T14:11:18;3.23;;;2.77;;
9536;SDS011;4807;48.024;11.726;2023-12-20T14:14:30;2.27;;;1.27;;
9536;SDS011;4807;48.024;11.726;2023-12-20T14:17:43;1.13;;;1.03;;
9536;SDS011;4807;48.024;11.726;2023-12-20T14:20:53;3.40;;;1.50;;
9536;SDS011;4807;48.024;11.726;2023-12-20T14:24:02;2.33;;;1.50;;
9536;SDS011;4807;48.024;11.726;2023-12-20T14:27:12;2.20;;;2.00;;
9536;SDS011;4807;48.024;11.726;2023-12-20T14:30:27;2.57;;;1.30;;
9536;SDS011;4807;48.024;11.726;2023-12-20T14:33:38;2.23;;;1.50;;
9536;SDS011;4807;48.024;11.726;2023-12-20T14:36:48;1.90;;;1.37;;
9536;SDS011;4807;48.024;11.726;2023-12-20T14:39:59;4.33;;;2.27;;
9536;SDS011;4807;48.024;11.726;2023-12-20T14:43:09;5.73;;;2.30;;
9536;SDS011;4807;48.024;11.726;2023-12-20T14:46:20;4.07;;;2.27;;
9536;SDS011;4807;48.024;11.726;2023-12-20T14:49:29;3.33;;;2.50;;
9536;SDS011;4807;48.024;11.726;2023-12-20T14:52:40;4.27;;;2.10;;
9536;SDS011;4807;48.024;11.726;2023-12-20T14:55:49;2.70;;;2.50;;
9536;SDS011;4807;48.024;11.726;2023-12-20T14:58:58;2.43;;;1.90;;
9536;SDS011;4807;48.024;11.726;2023-12-20T15:02:10;3.13;;;2.20;;
9536;SDS011;4807;48.024;11.726;2023-12-20T15:05:20;3.20;;;1.60;;
9536;SDS011;4807;48.024;11.726;2023-12-20T15:08:31;1.83;;;1.30;;
9536;SDS011;4807;48.024;11.726;2023-12-20T15:11:40;4.03;;;1.60;;
9536;SDS011;4807;48.024;11.726;2023-12-20T15:14:50;9.23;;;2.37;;
9536;SDS011;4807;48.024;11.726;2023-12-20T15:18:00;2.90;;;1.60;;
9536;SDS011;4807;48.024;11.726;2023-12-20T15:21:11;2.40;;;1.63;;
9536;SDS011;4807;48.024;11.726;2023-12-20T15:24:22;4.57;;;1.57;;
9536;SDS011;4807;48.024;11.726;2023-12-20T15:27:35;2.30;;;2.10;;
9536;SDS011;4807;48.024;11.726;2023-12-20T15:30:46;1.60;;;1.30;;
9536;SDS011;4807;48.024;11.726;2023-12-20T15:33:57;1.50;;;1.40;;
9536;SDS011;4807;48.024;11.726;2023-12-20T15:37:07;3.33;;;2.07;;
9536;SDS011;4807;48.024;11.726;2023-12-20T15:40:16;3.07;;;2.13;;
9536;SDS011;4807;48.024;11.726;2023-12-20T15:43:25;3.47;;;2.57;;
9536;SDS011;4807;48.024;11.726;2023-12-20T15:46:34;3.53;;;1.30;;
9536;SDS011;4807;48.024;11.726;2023-12-20T15:49:44;2.90;;;1.40;;
9536;SDS011;4807;48.024;11.726;2023-12-20T15:52:55;4.20;;;1.90;;
9536;SDS011;4807;48.024;11.726;2023-12-20T15:56:04;1.90;;;1.37;;
9536;SDS011;4807;48.024;11.726;2023-12-20T15:59:14;3.30;;;1.63;;
9536;SDS011;4807;48.024;11.726;2023-12-20T16:02:22;4.57;;;1.43;;
9536;SDS011;4807;48.024;11.726;2023-12-20T16:05:33;1.70;;;1.07;;
9536;SDS011;4807;48.024;11.726;2023-12-20T16:08:41;2.50;;;1.20;;
9536;SDS011;4807;48.024;11.726;2023-12-20T16:11:50;1.40;;;1.13;;
9536;SDS011;4807;48.024;11.726;2023-12-20T16:14:59;2.83;;;2.17;;
9536;SDS011;4807;48.024;11.726;2023-12-20T16:18:08;1.87;;;1.57;;
9536;SDS011;4807;48.024;11.726;2023-12-20T16:21:19;2.23;;;2.03;;
9536;SDS011;4807;48.024;11.726;2023-12-20T16:24:27;3.03;;;1.63;;
9536;SDS011;4807;48.024;11.726;2023-12-20T16:27:37;2.57;;;1.90;;
9536;SDS011;4807;48.024;11.726;2023-12-20T16:30:46;2.20;;;1.93;;
9536;SDS011;4807;48.024;11.726;2023-12-20T16:33:55;2.13;;;1.17;;
9536;SDS011;4807;48.024;11.726;2023-12-20T16:37:05;1.73;;;1.10;;
9536;SDS011;4807;48.024;11.726;2023-12-20T16:40:13;2.60;;;1.27;;
9536;SDS011;4807;48.024;11.726;2023-12-20T16:43:22;1.50;;;1.23;;
9536;SDS011;4807;48.024;11.726;2023-12-20T16:46:31;2.43;;;1.13;;
9536;SDS011;4807;48.024;11.726;2023-12-20T16:49:39;2.27;;;1.93;;
9536;SDS011;4807;48.024;11.726;2023-12-20T16:52:49;1.47;;;1.10;;
9536;SDS011;4807;48.024;11.726;2023-12-20T16:55:59;0.97;;;0.97;;
9536;SDS011;4807;48.024;11.726;2023-12-20T16:59:07;2.00;;;1.30;;
9536;SDS011;4807;48.024;11.726;2023-12-20T17:02:18;1.47;;;1.30;;
9536;SDS011;4807;48.024;11.726;2023-12-20T17:05:26;6.93;;;5.33;;
9536;SDS011;4807;48.024;11.726;2023-12-20T17:08:36;2.43;;;1.60;;
9536;SDS011;4807;48.024;11.726;2023-12-20T17:11:44;1.93;;;1.73;;
9536;SDS011;4807;48.024;11.726;2023-12-20T17:14:53;1.30;;;1.20;;
9536;SDS011;4807;48.024;11.726;2023-12-20T17:18:01;3.83;;;1.80;;
9536;SDS011;4807;48.024;11.726;2023-12-20T17:21:12;2.23;;;1.13;;
9536;SDS011;4807;48.024;11.726;2023-12-20T17:24:22;2.37;;;1.67;;
9536;SDS011;4807;48.024;11.726;2023-12-20T17:27:30;2.17;;;1.13;;
9536;SDS011;4807;48.024;11.726;2023-12-20T17:30:39;1.23;;;1.13;;
9536;SDS011;4807;48.024;11.726;2023-12-20T17:33:52;1.27;;;1.17;;
9536;SDS011;4807;48.024;11.726;2023-12-20T17:37:00;2.27;;;1.37;;
9536;SDS011;4807;48.024;11.726;2023-12-20T17:40:10;1.83;;;1.00;;
9536;SDS011;4807;48.024;11.726;2023-12-20T17:43:19;1.20;;;1.10;;
9536;SDS011;4807;48.024;11.726;2023-12-20T17:46:28;2.50;;;0.90;;
9536;SDS011;4807;48.024;11.726;2023-12-20T17:49:37;2.13;;;1.13;;
9536;SDS011;4807;48.024;11.726;2023-12-20T17:52:45;1.30;;;1.17;;
9536;SDS011;4807;48.024;11.726;2023-12-20T17:55:55;2.50;;;1.70;;
9536;SDS011;4807;48.024;11.726;2023-12-20T17:59:04;2.27;;;1.77;;
9536;SDS011;4807;48.024;11.726;2023-12-20T18:02:12;3.13;;;1.13;;
9536;SDS011;4807;48.024;11.726;2023-12-20T18:05:21;4.23;;;1.33;;
9536;SDS011;4807;48.024;11.726;2023-12-20T18:08:29;1.97;;;1.13;;
9536;SDS011;4807;48.024;11.726;2023-12-20T18:11:39;1.97;;;1.07;;
9536;SDS011;4807;48.024;11.726;2023-12-20T18:14:47;1.60;;;1.00;;
9536;SDS011;4807;48.024;11.726;2023-12-20T18:17:57;2.27;;;0.90;;
9536;SDS011;4807;48.024;11.726;2023-12-20T18:21:06;0.90;;;0.70;;
9536;SDS011;4807;48.024;11.726;2023-12-20T18:24:14;1.60;;;0.73;;
9536;SDS011;4807;48.024;11.726;2023-12-20T18:27:24;1.13;;;0.70;;
9536;SDS011;4807;48.024;11.726;2023-12-20T18:30:33;1.70;;;0.70;;
9536;SDS011;4807;48.024;11.726;2023-12-20T18:33:41;0.50;;;0.40;;
9536;SDS011;4807;48.024;11.726;2023-12-20T18:36:49;0.70;;;0.70;;
9536;SDS011;4807;48.024;11.726;2023-12-20T18:39:58;1.87;;;0.50;;
9536;SDS011;4807;48.024;11.726;2023-12-20T18:43:08;1.03;;;0.50;;
9536;SDS011;4807;48.024;11.726;2023-12-20T18:46:17;1.43;;;0.60;;
9536;SDS011;4807;48.024;11.726;2023-12-20T18:49:27;5.30;;;2.40;;
9536;SDS011;4807;48.024;11.726;2023-12-20T18:52:36;3.27;;;1.73;;
9536;SDS011;4807;48.024;11.726;2023-12-20T18:55:44;1.20;;;0.60;;
9536;SDS011;4807;48.024;11.726;2023-12-20T18:58:54;2.70;;;0.50;;
9536;SDS011;4807;48.024;11.726;2023-12-20T19:02:03;2.40;;;0.73;;
9536;SDS011;4807;48.024;11.726;2023-12-20T19:05:14;2.97;;;1.60;;
9536;SDS011;4807;48.024;11.726;2023-12-20T19:08:25;2.47;;;0.80;;
9536;SDS011;4807;48.024;11.726;2023-12-20T19:11:34;1.07;;;0.80;;
9536;SDS011;4807;48.024;11.726;2023-12-20T19:14:43;1.40;;;0.70;;
9536;SDS011;4807;48.024;11.726;2023-12-20T19:17:52;1.70;;;1.13;;